Impacts TAF Board
For situational awareness. Not to be used for flight planning purposes.
IDs:

KMLC - McAlester Rgnl, OK, US

Issued at 0520 UTC 18 Sep 2021
Updated at 0746 UTC 18 Sep 2021
Potential Impact None Slight Moderate High
Time0653Z 18/08Z 18/09Z 18/10Z 18/11Z 18/12Z 18/13Z 18/14Z 18/15Z 18/16Z 18/17Z 18/18Z 18/19Z 18/20Z>>
Type OBS PRVL PRVL PRVL PRVL PRVL PRVL PRVL PRVL PRVL PRVL PRVL PRVL PRVL
VIS 10 >6 >6 >6 >6 >6 >6 >6 >6 >6 >6 >6 >6 >6
CIG -- -- -- -- -- -- -- -- -- -- -- -- -- --
Cover SCT FEW FEW FEW FEW FEW FEW FEW FEW SCT SCT SCT SCT SCT
FltCat VFR VFR VFR VFR VFR VFR VFR VFR VFR VFR VFR VFR VFR VFR
WX -- -- -- -- -- -- -- -- -- -- -- -- -- --
WDir VRB VRB VRB VRB VRB VRB VRB VRB VRB VRB VRB VRB VRB VRB
WSpd 0 0 0 0 0 0 0 0 0 3 3 3 3 3
WGst -- -- -- -- -- -- -- -- -- -- -- -- -- --
Raw TAF
KMLC 180520Z 1806/1906 00000KT P6SM FEW250
  FM181600 VRB03KT P6SM SCT050
  FM190100 04004KT P6SM SKC


Raw METAR
KMLC 180653Z AUTO 00000KT 10SM FEW070 SCT110 20/19 A3005 RMK AO2 SLP166 T02000189
KMLC 180553Z AUTO 00000KT 10SM CLR 21/19 A3006 RMK AO2 SLP168 T02060189 10311 20206 403330183 51001
KMLC 180453Z AUTO 00000KT 10SM FEW075 FEW110 22/19 A3006 RMK AO2 SLP167 T02170189

METAR Board
Radar Display
Forecast Discussion
For situational awareness. Not to be used for flight planning purposes.